createdAt,value
2018-06-02T00:01:53.292Z,14.90
2018-06-02T00:04:19.332Z,14.90
2018-06-02T00:06:45.371Z,14.90
2018-06-02T00:09:11.397Z,14.80
2018-06-02T00:11:37.431Z,14.80
2018-06-02T00:14:03.469Z,14.70
2018-06-02T00:16:29.490Z,14.70
2018-06-02T00:18:55.523Z,14.70
2018-06-02T00:21:21.546Z,14.70
2018-06-02T00:23:47.591Z,14.70
2018-06-02T00:26:13.617Z,14.70
2018-06-02T00:28:40.385Z,14.60
2018-06-02T00:31:06.425Z,14.60
2018-06-02T00:33:32.882Z,14.60
2018-06-02T00:35:58.910Z,14.50
2018-06-02T00:38:24.936Z,14.60
2018-06-02T00:40:50.965Z,14.60
2018-06-02T00:43:16.990Z,14.60
2018-06-02T00:45:43.763Z,14.70
2018-06-02T00:48:09.786Z,14.70
2018-06-02T00:50:35.810Z,14.70
2018-06-02T00:53:02.582Z,14.90
2018-06-02T00:55:28.610Z,14.90
2018-06-02T00:57:54.650Z,15.00
2018-06-02T01:00:20.678Z,15.10
2018-06-02T01:02:46.698Z,15.10
2018-06-02T01:05:13.462Z,15.10
2018-06-02T01:07:40.233Z,15.00
2018-06-02T01:10:06.254Z,15.00
2018-06-02T01:12:32.323Z,15.00
2018-06-02T01:14:58.333Z,14.90
2018-06-02T01:17:24.331Z,14.70
2018-06-02T01:19:50.329Z,14.60
2018-06-02T01:22:16.333Z,14.60
2018-06-02T01:24:42.333Z,14.50
2018-06-02T01:27:08.359Z,14.40
2018-06-02T01:29:34.365Z,14.30
2018-06-02T01:32:00.377Z,14.20
2018-06-02T01:34:26.387Z,14.20
2018-06-02T01:36:53.158Z,14.10
2018-06-02T01:39:19.183Z,14.10
2018-06-02T01:41:45.934Z,14.00
2018-06-02T01:44:12.690Z,13.90
2018-06-02T01:46:39.446Z,14.00
2018-06-02T01:49:06.209Z,14.00
2018-06-02T01:51:32.230Z,14.00
2018-06-02T01:53:58.977Z,14.00
2018-06-02T01:56:25.747Z,14.00
2018-06-02T01:58:51.760Z,14.00
2018-06-02T02:01:17.784Z,14.10
2018-06-02T02:03:43.800Z,14.10
2018-06-02T02:06:09.820Z,14.00
2018-06-02T02:08:35.844Z,14.00
2018-06-02T02:11:01.881Z,13.90
2018-06-02T02:13:27.889Z,13.80
2018-06-02T02:15:54.645Z,13.70
2018-06-02T02:18:20.677Z,13.70
2018-06-02T02:20:47.430Z,13.60
2018-06-02T02:23:14.195Z,13.50
2018-06-02T02:25:40.221Z,13.50
2018-06-02T02:28:06.251Z,13.50
2018-06-02T02:30:32.275Z,13.50
2018-06-02T02:33:05.961Z,13.40
2018-06-02T02:35:31.976Z,13.40
2018-06-02T02:37:58.169Z,13.40
2018-06-02T02:40:24.913Z,13.40
2018-06-02T02:42:51.681Z,13.40
2018-06-02T02:45:18.454Z,13.40
2018-06-02T02:47:44.476Z,13.40
2018-06-02T02:50:10.486Z,13.50
2018-06-02T02:52:36.495Z,13.50
2018-06-02T02:55:02.528Z,13.40
2018-06-02T02:57:28.547Z,13.40
2018-06-02T02:59:54.558Z,13.40
2018-06-02T03:02:20.573Z,13.30
2018-06-02T03:04:47.323Z,13.30
2018-06-02T03:07:14.085Z,13.30
2018-06-02T03:09:40.835Z,13.30
2018-06-02T03:12:07.591Z,13.20
2018-06-02T03:14:33.606Z,13.20
2018-06-02T03:16:59.615Z,13.20
2018-06-02T03:19:25.624Z,13.20
2018-06-02T03:21:51.635Z,13.20
2018-06-02T03:24:18.382Z,13.30
2018-06-02T03:26:45.129Z,13.30
2018-06-02T03:29:11.872Z,13.30
2018-06-02T03:31:37.931Z,13.20
2018-06-02T03:34:03.954Z,13.20
2018-06-02T03:36:30.699Z,13.30
2018-06-02T03:38:57.454Z,13.30
2018-06-02T03:41:24.193Z,13.30
2018-06-02T03:43:50.205Z,13.30
2018-06-02T03:46:23.150Z,13.30
2018-06-02T03:48:49.897Z,13.30
2018-06-02T03:51:16.645Z,13.30
2018-06-02T03:53:43.399Z,13.30
2018-06-02T03:56:10.146Z,13.30
2018-06-02T03:58:36.901Z,13.30
2018-06-02T04:01:03.641Z,13.40
2018-06-02T04:03:29.653Z,13.40
2018-06-02T04:05:55.653Z,13.40
2018-06-02T04:08:21.675Z,13.50
2018-06-02T04:10:48.425Z,13.50
2018-06-02T04:13:15.191Z,13.50
2018-06-02T04:15:42.758Z,13.60
2018-06-02T04:18:08.765Z,13.60
2018-06-02T04:20:34.773Z,13.60
2018-06-02T04:23:00.803Z,13.70
2018-06-02T04:25:26.825Z,13.70
2018-06-02T04:27:52.842Z,13.80
2018-06-02T04:30:18.850Z,13.80
2018-06-02T04:32:45.601Z,14.00
2018-06-02T04:35:12.362Z,14.10
2018-06-02T04:37:39.121Z,14.20
2018-06-02T04:40:05.141Z,14.20
2018-06-02T04:42:31.894Z,14.30
2018-06-02T04:44:58.652Z,14.40
2018-06-02T04:47:25.407Z,14.40
2018-06-02T04:49:52.169Z,14.50
2018-06-02T04:52:18.177Z,14.50
2018-06-02T04:54:44.958Z,14.60
2018-06-02T04:57:10.979Z,14.60
2018-06-02T04:59:37.730Z,14.70
2018-06-02T05:02:04.483Z,14.80
2018-06-02T05:04:30.608Z,14.80
2018-06-02T05:06:57.281Z,14.90
2018-06-02T05:09:23.303Z,14.90
2018-06-02T05:11:50.081Z,15.00
2018-06-02T05:14:16.093Z,15.00
2018-06-02T05:16:42.845Z,15.10
2018-06-02T05:19:09.598Z,15.10
2018-06-02T05:21:36.378Z,15.20
2018-06-02T05:24:02.389Z,15.10
2018-06-02T05:26:29.149Z,15.20
2018-06-02T05:28:55.900Z,15.30
2018-06-02T05:31:22.664Z,15.40
2018-06-02T05:33:48.674Z,15.40
2018-06-02T05:36:15.437Z,15.50
2018-06-02T05:38:42.197Z,15.60
2018-06-02T05:41:08.958Z,15.60
2018-06-02T05:43:34.969Z,15.60
2018-06-02T05:46:01.751Z,15.70
2018-06-02T05:48:28.489Z,15.80
2018-06-02T05:50:55.241Z,15.80
2018-06-02T05:53:21.979Z,15.80
2018-06-02T05:55:48.744Z,15.90
2018-06-02T05:58:14.758Z,15.90
2018-06-02T06:00:40.773Z,16.00
2018-06-02T06:03:06.803Z,16.00
2018-06-02T06:05:32.823Z,16.10
2018-06-02T06:07:58.835Z,16.20
2018-06-02T06:10:24.854Z,16.20
2018-06-02T06:12:51.606Z,16.30
2018-06-02T06:15:18.358Z,16.40
2018-06-02T06:17:45.127Z,16.50
2018-06-02T06:20:11.138Z,16.50
2018-06-02T06:22:37.885Z,16.50
2018-06-02T06:25:04.652Z,16.50
2018-06-02T06:27:31.412Z,16.60
2018-06-02T06:29:57.443Z,16.50
2018-06-02T06:32:24.212Z,16.80
2018-06-02T06:34:50.226Z,16.70
2018-06-02T06:37:16.985Z,16.90
2018-06-02T06:39:43.746Z,17.20
2018-06-02T06:42:09.766Z,17.20
2018-06-02T06:44:36.524Z,17.70
2018-06-02T06:47:03.315Z,17.90
2018-06-02T06:49:29.326Z,17.80
2018-06-02T06:51:55.349Z,18.30
2018-06-02T06:54:22.106Z,21.40
2018-06-02T06:56:48.129Z,21.30
2018-06-02T06:59:14.881Z,23.80
2018-06-02T07:01:41.640Z,23.80
2018-06-02T07:04:07.660Z,23.80
2018-06-02T07:06:33.673Z,23.40
2018-06-02T07:08:59.698Z,23.20
2018-06-02T07:11:25.736Z,24.00
2018-06-02T07:13:51.753Z,24.70
2018-06-02T07:16:17.818Z,25.40
2018-06-02T07:18:43.821Z,25.40
2018-06-02T07:21:09.830Z,24.30
2018-06-02T07:23:35.841Z,23.50
2018-06-02T07:26:01.846Z,22.10
2018-06-02T07:28:27.874Z,21.80
2018-06-02T07:30:53.873Z,22.20
2018-06-02T07:33:19.901Z,24.00
2018-06-02T07:35:46.651Z,26.10
2018-06-02T07:38:13.405Z,25.00
2018-06-02T07:40:40.197Z,24.20
2018-06-02T07:43:06.245Z,24.20
2018-06-02T07:45:32.246Z,24.00
2018-06-02T07:47:58.253Z,25.60
2018-06-02T07:50:25.515Z,28.00
2018-06-02T07:52:51.517Z,27.90
2018-06-02T07:55:17.589Z,27.90
2018-06-02T07:57:44.351Z,24.00
2018-06-02T08:00:11.166Z,22.60
2018-06-02T08:02:37.174Z,22.60
2018-06-02T08:05:03.193Z,22.50
2018-06-02T08:07:29.198Z,24.50
2018-06-02T08:09:55.969Z,27.70
2018-06-02T08:12:22.777Z,29.10
2018-06-02T08:14:48.798Z,29.10
2018-06-02T08:17:14.806Z,27.70
2018-06-02T08:19:40.833Z,26.00
2018-06-02T08:22:07.598Z,23.90
2018-06-02T08:24:33.617Z,23.90
2018-06-02T08:27:00.374Z,24.00
2018-06-02T08:29:27.125Z,25.40
2018-06-02T08:31:53.899Z,25.40
2018-06-02T08:34:20.026Z,25.40
2018-06-02T08:36:46.781Z,23.10
2018-06-02T08:39:12.807Z,23.00
2018-06-02T08:41:39.562Z,21.20
2018-06-02T08:44:06.362Z,20.50
2018-06-02T08:46:32.382Z,20.50
2018-06-02T08:48:58.397Z,20.10
2018-06-02T08:51:24.409Z,19.90
2018-06-02T08:53:51.237Z,19.70
2018-06-02T08:56:17.324Z,19.70
2018-06-02T08:58:43.389Z,19.90
2018-06-02T09:01:09.417Z,20.00
2018-06-02T09:03:35.449Z,20.20
2018-06-02T09:06:01.475Z,20.70
2018-06-02T09:08:27.501Z,21.10
2018-06-02T09:10:54.375Z,22.00
2018-06-02T09:13:20.419Z,22.00
2018-06-02T09:15:46.557Z,22.20
2018-06-02T09:18:12.577Z,22.30
2018-06-02T09:20:38.659Z,22.10
2018-06-02T09:23:04.685Z,22.20
2018-06-02T09:25:30.714Z,22.20
2018-06-02T09:27:56.781Z,22.30
2018-06-02T09:30:22.758Z,22.70
2018-06-02T09:32:48.774Z,23.10
2018-06-02T09:35:15.593Z,23.00
2018-06-02T09:37:41.598Z,23.00
2018-06-02T09:40:07.666Z,24.10
2018-06-02T09:42:33.697Z,26.30
2018-06-02T09:44:59.739Z,27.70
2018-06-02T09:47:25.763Z,27.60
2018-06-02T09:49:51.858Z,26.60
2018-06-02T09:52:17.895Z,27.10
2018-06-02T09:54:43.944Z,28.70
2018-06-02T09:57:09.967Z,29.30
2018-06-02T09:59:35.977Z,28.70
2018-06-02T10:02:02.015Z,28.70
2018-06-02T10:04:28.102Z,27.40
2018-06-02T10:06:54.130Z,26.80
2018-06-02T10:09:20.142Z,25.40
2018-06-02T10:11:46.911Z,23.30
2018-06-02T10:14:12.942Z,23.30
2018-06-02T10:16:39.052Z,22.90
2018-06-02T10:19:05.105Z,22.50
2018-06-02T10:21:31.108Z,22.80
2018-06-02T10:23:57.349Z,23.10
2018-06-02T10:26:23.366Z,23.70
2018-06-02T10:28:49.433Z,25.00
2018-06-02T10:31:15.450Z,26.50
2018-06-02T10:33:41.463Z,28.60
2018-06-02T10:36:07.491Z,29.20
2018-06-02T10:38:33.637Z,29.10
2018-06-02T10:40:59.772Z,28.80
2018-06-02T10:43:25.913Z,27.90
2018-06-02T10:45:51.935Z,27.60
2018-06-02T10:48:17.953Z,27.90
2018-06-02T10:50:45.163Z,28.60
2018-06-02T10:53:11.202Z,28.60
2018-06-02T10:55:37.221Z,29.20
2018-06-02T10:58:03.243Z,29.50
2018-06-02T11:00:29.251Z,29.60
2018-06-02T11:02:55.345Z,29.50
2018-06-02T11:05:21.355Z,29.70
2018-06-02T11:07:47.370Z,29.60
2018-06-02T11:10:13.373Z,29.50
2018-06-02T11:12:40.122Z,29.60
2018-06-02T11:15:06.133Z,29.60
2018-06-02T11:17:32.146Z,29.00
2018-06-02T11:19:58.176Z,28.40
2018-06-02T11:22:24.188Z,27.50
2018-06-02T11:24:50.949Z,27.20
2018-06-02T11:27:16.982Z,27.10
2018-06-02T11:29:43.056Z,27.30
2018-06-02T11:32:09.076Z,28.20
2018-06-02T11:34:35.115Z,29.00
2018-06-02T11:37:01.134Z,29.80
2018-06-02T11:39:27.138Z,29.60
2018-06-02T11:41:53.882Z,27.50
2018-06-02T11:44:19.929Z,27.50
2018-06-02T11:46:45.893Z,26.60
2018-06-02T11:49:11.908Z,25.90
2018-06-02T11:51:38.697Z,24.10
2018-06-02T11:54:04.701Z,24.10
2018-06-02T11:56:30.701Z,23.50
2018-06-02T11:58:57.463Z,22.60
2018-06-02T12:01:25.990Z,22.60
2018-06-02T12:03:54.161Z,22.80
2018-06-02T12:06:23.669Z,22.80
2018-06-02T12:08:51.077Z,23.20
2018-06-02T12:11:17.287Z,23.50
2018-06-02T12:13:44.053Z,23.90
2018-06-02T12:16:11.329Z,24.30
2018-06-02T12:18:40.091Z,24.40
2018-06-02T12:21:08.483Z,25.50
2018-06-02T12:23:34.955Z,25.40
2018-06-02T12:26:01.046Z,27.20
2018-06-02T12:28:27.143Z,27.70
2018-06-02T12:30:53.276Z,28.60
2018-06-02T12:33:19.303Z,29.50
2018-06-02T12:35:46.078Z,30.70
2018-06-02T12:38:12.141Z,30.70
2018-06-02T12:40:38.182Z,30.20
2018-06-02T12:43:05.178Z,30.10
2018-06-02T12:45:31.943Z,30.10
2018-06-02T12:47:58.054Z,30.10
2018-06-02T12:50:24.074Z,29.80
2018-06-02T12:52:51.313Z,31.40
2018-06-02T12:55:17.362Z,31.30
2018-06-02T12:57:44.678Z,30.10
2018-06-02T13:00:10.750Z,28.50
2018-06-02T13:02:36.754Z,27.20
2018-06-02T13:05:02.785Z,27.80
2018-06-02T13:07:29.565Z,29.90
2018-06-02T13:09:55.575Z,29.90
2018-06-02T13:12:22.390Z,31.70
2018-06-02T13:14:48.403Z,31.60
2018-06-02T13:17:14.398Z,30.60
2018-06-02T13:19:40.475Z,30.30
2018-06-02T13:22:06.483Z,30.80
2018-06-02T13:24:32.483Z,31.90
2018-06-02T13:26:59.346Z,30.20
2018-06-02T13:29:26.145Z,28.80
2018-06-02T13:31:52.218Z,28.70
2018-06-02T13:34:18.254Z,27.60
2018-06-02T13:36:44.257Z,28.20
2018-06-02T13:39:10.257Z,29.50
2018-06-02T13:41:36.271Z,31.10
2018-06-02T13:44:03.027Z,32.10
2018-06-02T13:46:29.791Z,32.40
2018-06-02T13:48:55.802Z,32.40
2018-06-02T13:51:21.852Z,31.80
2018-06-02T13:53:47.818Z,30.60
2018-06-02T13:56:13.827Z,30.00
2018-06-02T13:58:39.841Z,29.60
2018-06-02T14:01:05.861Z,29.70
2018-06-02T14:03:31.862Z,29.60
2018-06-02T14:05:57.882Z,29.30
2018-06-02T14:08:23.958Z,30.10
2018-06-02T14:10:49.974Z,30.70
2018-06-02T14:13:15.998Z,31.50
2018-06-02T14:15:42.032Z,31.20
2018-06-02T14:18:08.106Z,30.30
2018-06-02T14:20:34.126Z,29.80
2018-06-02T14:23:00.141Z,29.20
2018-06-02T14:25:26.272Z,29.10
2018-06-02T14:27:53.125Z,28.50
2018-06-02T14:30:20.983Z,28.40
2018-06-02T14:32:47.766Z,29.30
2018-06-02T14:35:13.861Z,29.30
2018-06-02T14:37:39.874Z,30.20
2018-06-02T14:40:05.882Z,30.50
2018-06-02T14:42:31.899Z,31.30
2018-06-02T14:44:57.898Z,31.60
2018-06-02T14:47:23.916Z,31.60
2018-06-02T14:49:49.930Z,31.10
2018-06-02T14:52:15.938Z,29.50
2018-06-02T14:54:41.942Z,28.70
2018-06-02T14:57:08.145Z,28.80
2018-06-02T14:59:34.149Z,27.90
2018-06-02T15:02:00.165Z,27.70
2018-06-02T15:04:26.966Z,28.70
2018-06-02T15:06:52.989Z,28.70
2018-06-02T15:09:19.133Z,29.20
2018-06-02T15:11:45.146Z,29.40
2018-06-02T15:14:11.211Z,29.30
2018-06-02T15:16:37.227Z,28.40
2018-06-02T15:19:03.285Z,27.40
2018-06-02T15:21:29.290Z,26.40
2018-06-02T15:23:55.289Z,25.90
2018-06-02T15:26:21.323Z,25.90
2018-06-02T15:28:48.861Z,25.70
2018-06-02T15:31:14.866Z,25.70
2018-06-02T15:33:40.882Z,25.70
2018-06-02T15:36:07.627Z,26.10
2018-06-02T15:38:34.394Z,27.10
2018-06-02T15:41:01.139Z,27.30
2018-06-02T15:43:27.887Z,27.20
2018-06-02T15:45:54.641Z,27.40
2018-06-02T15:48:21.382Z,28.20
2018-06-02T15:50:47.386Z,28.20
2018-06-02T15:53:13.394Z,28.90
2018-06-02T15:55:39.402Z,29.70
2018-06-02T15:58:06.146Z,30.30
2018-06-02T16:00:33.526Z,30.30
2018-06-02T16:03:00.269Z,31.40
2018-06-02T16:05:27.022Z,31.20
2018-06-02T16:07:53.783Z,31.10
2018-06-02T16:10:20.529Z,30.90
2018-06-02T16:12:47.283Z,30.80
2018-06-02T16:15:14.034Z,30.70
2018-06-02T16:17:40.792Z,30.60
2018-06-02T16:20:07.549Z,30.70
2018-06-02T16:22:34.292Z,30.60
2018-06-02T16:25:01.039Z,30.10
2018-06-02T16:27:27.775Z,28.60
2018-06-02T16:29:53.838Z,28.60
2018-06-02T16:32:20.581Z,28.20
2018-06-02T16:34:47.390Z,28.30
2018-06-02T16:37:13.401Z,28.30
2018-06-02T16:39:39.415Z,28.20
2018-06-02T16:42:08.218Z,26.90
2018-06-02T16:44:36.422Z,26.00
2018-06-02T16:47:02.446Z,26.00
2018-06-02T16:49:28.457Z,26.00
2018-06-02T16:51:54.474Z,26.60
2018-06-02T16:54:21.235Z,25.90
2018-06-02T16:56:47.241Z,25.90
2018-06-02T16:59:13.279Z,26.00
2018-06-02T17:01:39.286Z,26.40
2018-06-02T17:04:05.305Z,26.90
2018-06-02T17:06:32.071Z,27.90
2018-06-02T17:08:58.137Z,27.90
2018-06-02T17:11:24.162Z,28.20
2018-06-02T17:13:50.217Z,27.90
2018-06-02T17:16:16.239Z,27.60
2018-06-02T17:18:42.289Z,27.20
2018-06-02T17:21:08.308Z,26.90
2018-06-02T17:23:34.307Z,26.30
2018-06-02T17:26:00.321Z,25.70
2018-06-02T17:28:26.322Z,25.10
2018-06-02T17:30:52.375Z,24.70
2018-06-02T17:33:18.385Z,24.30
2018-06-02T17:35:44.449Z,24.00
2018-06-02T17:38:10.538Z,23.80
2018-06-02T17:40:36.615Z,23.70
2018-06-02T17:43:02.625Z,23.40
2018-06-02T17:45:28.638Z,23.30
2018-06-02T17:47:54.637Z,23.30
2018-06-02T17:50:20.657Z,23.10
2018-06-02T17:52:46.673Z,23.00
2018-06-02T17:55:12.693Z,22.70
2018-06-02T17:57:38.704Z,22.60
2018-06-02T18:00:05.475Z,22.50
2018-06-02T18:02:31.493Z,22.50
2018-06-02T18:04:58.253Z,22.70
2018-06-02T18:07:24.259Z,22.70
2018-06-02T18:09:50.267Z,22.70
2018-06-02T18:12:16.309Z,22.70
2018-06-02T18:14:42.333Z,22.70
2018-06-02T18:17:08.357Z,22.50
2018-06-02T18:19:34.374Z,22.30
2018-06-02T18:22:00.400Z,22.20
2018-06-02T18:24:26.422Z,22.00
2018-06-02T18:26:53.214Z,21.80
2018-06-02T18:29:19.233Z,21.80
2018-06-02T18:31:45.254Z,21.70
2018-06-02T18:34:12.014Z,21.60
2018-06-02T18:36:38.031Z,21.50
2018-06-02T18:39:04.786Z,21.30
2018-06-02T18:41:31.556Z,21.10
2018-06-02T18:43:57.584Z,21.00
2018-06-02T18:46:23.601Z,21.00
2018-06-02T18:48:50.365Z,20.90
2018-06-02T18:51:16.399Z,20.80
2018-06-02T18:53:43.171Z,20.80
2018-06-02T18:56:09.228Z,20.80
2018-06-02T18:58:35.238Z,20.70
2018-06-02T19:01:01.309Z,20.60
2018-06-02T19:03:27.300Z,20.50
2018-06-02T19:05:53.327Z,20.30
2018-06-02T19:08:20.178Z,20.10
2018-06-02T19:10:46.921Z,20.00
2018-06-02T19:13:12.953Z,20.00
2018-06-02T19:15:39.019Z,19.90
2018-06-02T19:18:05.069Z,19.80
2018-06-02T19:20:31.094Z,19.70
2018-06-02T19:22:57.105Z,19.60
2018-06-02T19:25:23.122Z,19.50
2018-06-02T19:27:49.129Z,19.50
2018-06-02T19:30:15.197Z,19.40
2018-06-02T19:32:41.223Z,19.30
2018-06-02T19:35:07.222Z,19.30
2018-06-02T19:37:33.251Z,19.30
2018-06-02T19:39:59.261Z,19.30
2018-06-02T19:42:26.010Z,19.30
2018-06-02T19:44:52.926Z,19.20
2018-06-02T19:47:18.939Z,19.20
2018-06-02T19:49:44.937Z,19.20
2018-06-02T19:52:11.692Z,19.10
2018-06-02T19:54:38.491Z,19.00
2018-06-02T19:57:04.503Z,19.00
2018-06-02T19:59:30.511Z,19.00
2018-06-02T20:01:57.276Z,18.90
2018-06-02T20:04:24.054Z,18.90
2018-06-02T20:06:50.077Z,18.90
2018-06-02T20:09:16.110Z,18.80
2018-06-02T20:11:42.135Z,18.90
2018-06-02T20:14:08.935Z,18.80
2018-06-02T20:16:34.986Z,18.80
2018-06-02T20:19:01.018Z,18.70
2018-06-02T20:21:27.043Z,18.70
2018-06-02T20:23:53.199Z,18.60
2018-06-02T20:26:24.648Z,18.60
2018-06-02T20:28:50.688Z,18.60
2018-06-02T20:31:16.714Z,18.60
2018-06-02T20:33:42.733Z,18.70
2018-06-02T20:36:08.843Z,18.70
2018-06-02T20:38:34.844Z,18.70
2018-06-02T20:41:00.857Z,18.70
2018-06-02T20:43:26.899Z,18.70
2018-06-02T20:45:52.922Z,18.70
2018-06-02T20:48:18.942Z,18.70
2018-06-02T20:50:44.995Z,18.80
2018-06-02T20:53:11.115Z,18.80
2018-06-02T20:55:37.131Z,18.80
2018-06-02T20:58:03.910Z,18.70
2018-06-02T21:00:29.923Z,18.70
2018-06-02T21:02:56.128Z,18.70
2018-06-02T21:05:22.148Z,18.60
2018-06-02T21:07:48.255Z,18.60
2018-06-02T21:10:14.251Z,18.50
2018-06-02T21:12:40.259Z,18.40
2018-06-02T21:15:06.311Z,18.30
2018-06-02T21:17:32.310Z,18.20
2018-06-02T21:19:58.317Z,18.00
2018-06-02T21:22:24.321Z,18.00
2018-06-02T21:24:50.330Z,17.90
2018-06-02T21:27:16.330Z,17.80
2018-06-02T21:29:42.337Z,17.70
2018-06-02T21:32:09.106Z,17.60
2018-06-02T21:34:35.856Z,17.50
2018-06-02T21:37:02.704Z,17.40
2018-06-02T21:39:29.457Z,17.40
2018-06-02T21:41:56.194Z,17.30
2018-06-02T21:44:22.209Z,17.30
2018-06-02T21:46:48.213Z,17.20
2018-06-02T21:49:14.226Z,17.20
2018-06-02T21:51:40.229Z,17.10
2018-06-02T21:54:06.290Z,17.00
2018-06-02T21:56:33.042Z,17.00
2018-06-02T21:58:59.793Z,16.90
2018-06-02T22:01:26.551Z,16.90
2018-06-02T22:03:53.303Z,16.80
2018-06-02T22:06:20.098Z,16.80
2018-06-02T22:08:46.109Z,16.80
2018-06-02T22:11:12.126Z,16.80
2018-06-02T22:13:38.144Z,16.80
2018-06-02T22:16:04.909Z,16.70
2018-06-02T22:18:31.649Z,16.70
2018-06-02T22:20:57.756Z,16.60
2018-06-02T22:23:23.776Z,16.70
2018-06-02T22:25:49.785Z,16.60
2018-06-02T22:28:15.784Z,16.60
2018-06-02T22:30:41.792Z,16.60
2018-06-02T22:33:07.809Z,16.50
2018-06-02T22:35:33.819Z,16.50
2018-06-02T22:38:00.561Z,16.40
2018-06-02T22:40:27.321Z,16.40
2018-06-02T22:42:54.124Z,16.30
2018-06-02T22:45:20.081Z,16.30
2018-06-02T22:47:46.085Z,16.30
2018-06-02T22:50:12.092Z,16.30
2018-06-02T22:52:38.114Z,16.20
2018-06-02T22:55:04.890Z,16.20
2018-06-02T22:57:30.897Z,16.20
2018-06-02T22:59:57.647Z,16.20
2018-06-02T23:02:24.403Z,16.10
2018-06-02T23:04:51.156Z,16.10
2018-06-02T23:07:17.911Z,16.10
2018-06-02T23:09:44.654Z,16.10
2018-06-02T23:12:11.429Z,16.10
2018-06-02T23:14:37.444Z,16.10
2018-06-02T23:17:04.219Z,16.10
2018-06-02T23:19:30.229Z,16.10
2018-06-02T23:21:56.996Z,16.00
2018-06-02T23:24:23.010Z,16.00
2018-06-02T23:26:49.791Z,16.00
2018-06-02T23:29:15.806Z,16.00
2018-06-02T23:31:42.631Z,15.90
2018-06-02T23:34:08.648Z,15.90
2018-06-02T23:36:34.661Z,15.90
2018-06-02T23:39:00.681Z,15.80
2018-06-02T23:41:26.693Z,15.90
2018-06-02T23:43:53.449Z,15.80
2018-06-02T23:46:20.216Z,15.80
2018-06-02T23:48:46.963Z,15.80
2018-06-02T23:51:13.733Z,15.70
2018-06-02T23:53:39.752Z,15.70
2018-06-02T23:56:06.510Z,15.70
2018-06-02T23:58:33.262Z,15.70
